createdAt,value
2022-11-22T00:01:25.417Z,53.60
2022-11-22T00:03:53.651Z,52.72
2022-11-22T00:06:21.678Z,53.20
2022-11-22T00:08:51.430Z,53.38
2022-11-22T00:11:19.631Z,53.60
2022-11-22T00:13:47.962Z,49.67
2022-11-22T00:16:16.244Z,49.58
2022-11-22T00:18:44.547Z,50.38
2022-11-22T00:21:12.611Z,50.95
2022-11-22T00:23:40.950Z,47.00
2022-11-22T00:26:12.369Z,46.88
2022-11-22T00:28:40.992Z,47.88
2022-11-22T00:31:08.961Z,47.30
2022-11-22T00:33:37.264Z,46.03
2022-11-22T00:36:05.838Z,45.03
2022-11-22T00:38:34.246Z,43.53
2022-11-22T00:41:02.433Z,44.97
2022-11-22T00:43:32.607Z,43.90
2022-11-22T00:46:00.840Z,40.63
2022-11-22T00:48:29.581Z,40.20
2022-11-22T00:50:57.606Z,38.10
2022-11-22T00:53:26.025Z,36.90
2022-11-22T00:55:54.159Z,38.78
2022-11-22T00:58:22.488Z,35.47
2022-11-22T01:00:56.577Z,38.40
2022-11-22T01:03:25.285Z,38.05
2022-11-22T01:05:53.305Z,37.15
2022-11-22T01:08:21.698Z,38.42
2022-11-22T01:10:49.767Z,39.67
2022-11-22T01:13:18.128Z,38.80
2022-11-22T01:15:46.240Z,42.30
2022-11-22T01:18:16.143Z,41.03
2022-11-22T01:20:44.188Z,41.47
2022-11-22T01:23:12.625Z,41.47
2022-11-22T01:25:43.865Z,43.13
2022-11-22T01:28:12.449Z,42.45
2022-11-22T01:30:42.018Z,43.45
2022-11-22T01:33:10.750Z,43.58
2022-11-22T01:35:40.102Z,41.38
2022-11-22T01:38:08.603Z,40.67
2022-11-22T01:40:36.901Z,40.70
2022-11-22T01:43:18.159Z,39.83
2022-11-22T01:45:52.021Z,41.47
2022-11-22T01:48:36.856Z,41.70
2022-11-22T01:51:08.750Z,39.35
2022-11-22T01:53:38.858Z,42.10
2022-11-22T01:56:10.284Z,41.85
2022-11-22T01:58:39.148Z,39.45
2022-11-22T02:01:07.981Z,40.33
2022-11-22T02:03:38.857Z,42.30
2022-11-22T02:06:08.827Z,42.72
2022-11-22T02:08:41.613Z,40.25
2022-11-22T02:11:10.925Z,38.42
2022-11-22T02:13:42.047Z,41.42
2022-11-22T02:16:10.879Z,43.72
2022-11-22T02:18:39.682Z,45.00
2022-11-22T02:21:09.240Z,43.42
2022-11-22T02:23:47.227Z,44.35
2022-11-22T02:26:16.656Z,46.25
2022-11-22T02:28:45.125Z,45.60
2022-11-22T02:31:34.746Z,46.53
2022-11-22T02:34:03.398Z,50.22
2022-11-22T02:36:34.828Z,45.95
2022-11-22T02:39:03.437Z,42.83
2022-11-22T02:41:33.278Z,44.13
2022-11-22T02:44:01.685Z,43.22
2022-11-22T02:46:29.675Z,44.90
2022-11-22T02:48:58.034Z,47.90
2022-11-22T02:51:26.619Z,46.25
2022-11-22T02:53:56.903Z,47.60
2022-11-22T02:56:25.004Z,45.22
2022-11-22T02:58:54.757Z,51.47
2022-11-22T03:01:22.823Z,53.80
2022-11-22T03:03:51.172Z,53.72
2022-11-22T03:06:19.386Z,51.10
2022-11-22T03:08:53.149Z,50.35
2022-11-22T03:11:24.253Z,50.92
2022-11-22T03:13:54.069Z,49.35
2022-11-22T03:16:22.278Z,48.85
2022-11-22T03:18:50.669Z,49.67
2022-11-22T03:21:18.752Z,48.08
2022-11-22T03:23:47.074Z,47.00
2022-11-22T03:26:15.183Z,46.90
2022-11-22T03:28:43.427Z,45.90
2022-11-22T03:31:12.870Z,45.05
2022-11-22T03:33:41.216Z,47.92
2022-11-22T03:36:09.238Z,44.15
2022-11-22T03:38:37.643Z,45.65
2022-11-22T03:41:05.961Z,48.25
2022-11-22T03:43:34.482Z,50.30
2022-11-22T03:46:02.553Z,51.47
2022-11-22T03:48:32.533Z,53.92
2022-11-22T03:51:05.582Z,50.38
2022-11-22T03:53:34.627Z,48.35
2022-11-22T03:56:02.862Z,47.95
2022-11-22T03:58:31.222Z,45.83
2022-11-22T04:00:59.604Z,47.30
2022-11-22T04:03:28.088Z,47.47
2022-11-22T04:05:57.675Z,51.97
2022-11-22T04:08:26.159Z,50.30
2022-11-22T04:10:54.319Z,46.75
2022-11-22T04:13:42.857Z,47.63
2022-11-22T04:16:09.973Z,45.10
2022-11-22T04:18:38.377Z,46.05
2022-11-22T04:21:25.112Z,48.15
2022-11-22T04:24:07.632Z,47.65
2022-11-22T04:26:35.721Z,47.92
2022-11-22T04:29:11.323Z,43.08
2022-11-22T04:31:57.091Z,44.17
2022-11-22T04:34:25.368Z,45.33
2022-11-22T04:36:54.929Z,47.83
2022-11-22T04:39:23.345Z,50.13
2022-11-22T04:42:13.841Z,52.58
2022-11-22T04:44:41.905Z,48.67
2022-11-22T04:47:10.372Z,47.65
2022-11-22T04:49:39.034Z,47.67
2022-11-22T04:52:25.950Z,44.55
2022-11-22T04:54:54.238Z,44.22
2022-11-22T04:57:22.449Z,43.67
2022-11-22T04:59:50.895Z,43.95
2022-11-22T05:02:18.923Z,44.17
2022-11-22T05:04:50.655Z,43.30
2022-11-22T05:07:20.489Z,42.72
2022-11-22T05:09:48.861Z,46.15
2022-11-22T05:12:16.963Z,45.95
2022-11-22T05:14:45.335Z,45.95
2022-11-22T05:17:13.880Z,44.35
2022-11-22T05:19:47.819Z,43.08
2022-11-22T05:22:17.791Z,43.17
2022-11-22T05:24:46.673Z,42.67
2022-11-22T05:27:14.720Z,41.83
2022-11-22T05:29:43.167Z,43.58
2022-11-22T05:32:11.272Z,43.08
2022-11-22T05:34:39.708Z,40.92
2022-11-22T05:37:07.843Z,43.83
2022-11-22T05:39:36.433Z,41.15
2022-11-22T05:42:06.063Z,41.13
2022-11-22T05:44:34.480Z,39.08
2022-11-22T05:47:02.449Z,40.25
2022-11-22T05:49:31.168Z,38.05
2022-11-22T05:51:59.555Z,38.90
2022-11-22T05:54:28.042Z,38.55
2022-11-22T05:56:56.075Z,38.80
2022-11-22T05:59:25.885Z,40.08
2022-11-22T06:01:53.975Z,37.28
2022-11-22T06:04:22.551Z,40.95
2022-11-22T06:06:50.612Z,40.13
2022-11-22T06:09:19.001Z,40.78
2022-11-22T06:11:48.362Z,41.90
2022-11-22T06:14:16.660Z,43.00
2022-11-22T06:16:46.053Z,42.20
2022-11-22T06:19:14.417Z,40.00
2022-11-22T06:21:42.597Z,43.08
2022-11-22T06:24:11.425Z,41.38
2022-11-22T06:26:39.833Z,46.33
2022-11-22T06:29:08.266Z,39.97
2022-11-22T06:31:37.147Z,41.58
2022-11-22T06:34:06.952Z,39.58
2022-11-22T06:36:36.450Z,41.30
2022-11-22T06:39:05.491Z,40.67
2022-11-22T06:41:35.036Z,39.45
2022-11-22T06:44:06.537Z,41.88
2022-11-22T06:49:03.385Z,40.17
2022-11-22T06:51:33.323Z,39.80
2022-11-22T06:54:02.176Z,43.38
2022-11-22T06:56:31.731Z,43.63
2022-11-22T06:59:03.134Z,42.13
2022-11-22T07:01:32.225Z,41.42
2022-11-22T07:04:01.471Z,44.95
2022-11-22T07:06:31.218Z,43.50
2022-11-22T07:09:01.620Z,40.97
2022-11-22T07:11:31.296Z,50.03
2022-11-22T07:14:07.074Z,45.53
2022-11-22T07:16:37.683Z,46.25
2022-11-22T07:19:06.081Z,54.55
2022-11-22T07:21:34.319Z,56.22
2022-11-22T07:24:05.622Z,62.75
2022-11-22T07:26:34.046Z,58.97
2022-11-22T07:29:02.384Z,41.40
2022-11-22T07:31:30.633Z,43.45
2022-11-22T07:33:59.000Z,35.55
2022-11-22T07:36:29.643Z,37.65
2022-11-22T07:38:58.253Z,36.50
2022-11-22T07:41:27.760Z,39.88
2022-11-22T07:43:56.022Z,33.80
2022-11-22T07:46:26.455Z,34.50
2022-11-22T07:48:54.597Z,35.33
2022-11-22T07:51:22.951Z,34.15
2022-11-22T07:53:51.054Z,31.17
2022-11-22T07:56:19.841Z,32.50
2022-11-22T07:58:49.463Z,33.72
2022-11-22T08:01:19.299Z,33.17
2022-11-22T08:03:47.587Z,32.80
2022-11-22T08:06:16.816Z,33.03
2022-11-22T08:08:44.954Z,31.15
2022-11-22T08:11:13.820Z,29.10
2022-11-22T08:13:42.560Z,29.98
2022-11-22T08:16:14.013Z,31.52
2022-11-22T08:18:43.280Z,30.75
2022-11-22T08:21:14.505Z,32.70
2022-11-22T08:23:43.531Z,31.10
2022-11-22T08:26:13.417Z,28.45
2022-11-22T08:28:42.219Z,32.88
2022-11-22T08:31:13.936Z,26.20
2022-11-22T08:36:10.563Z,27.50
2022-11-22T08:38:38.883Z,29.02
2022-11-22T08:41:07.757Z,25.83
2022-11-22T08:43:35.914Z,29.45
2022-11-22T08:46:04.762Z,31.15
2022-11-22T08:48:35.803Z,32.95
2022-11-22T08:53:33.848Z,30.85
2022-11-22T08:56:03.074Z,33.08
2022-11-22T08:58:31.296Z,30.73
2022-11-22T09:01:05.427Z,32.55
2022-11-22T09:03:35.735Z,30.48
2022-11-22T09:09:08.603Z,31.30
2022-11-22T09:11:41.882Z,27.65
2022-11-22T09:14:10.235Z,28.30
2022-11-22T09:16:38.668Z,30.10
2022-11-22T09:19:08.206Z,29.90
2022-11-22T09:21:36.827Z,28.42
2022-11-22T09:24:05.394Z,26.00
2022-11-22T09:26:33.764Z,40.90
2022-11-22T09:29:01.846Z,31.15
2022-11-22T09:31:32.457Z,25.80
2022-11-22T09:34:00.975Z,25.10
2022-11-22T09:36:31.028Z,23.90
2022-11-22T09:38:59.675Z,22.75
2022-11-22T09:42:05.564Z,24.67
2022-11-22T09:44:43.343Z,23.35
2022-11-22T09:47:20.257Z,23.23
2022-11-22T09:49:54.696Z,24.33
2022-11-22T09:52:28.706Z,25.05
2022-11-22T09:54:58.710Z,23.05
2022-11-22T09:57:29.596Z,33.30
2022-11-22T10:00:05.163Z,28.45
2022-11-22T10:02:58.839Z,22.23
2022-11-22T10:05:27.882Z,24.55
2022-11-22T10:08:02.740Z,19.77
2022-11-22T10:10:35.778Z,19.42
2022-11-22T10:13:07.510Z,16.00
2022-11-22T10:15:42.960Z,15.38
2022-11-22T10:18:17.413Z,15.40
2022-11-22T10:20:48.812Z,16.58
2022-11-22T10:23:22.109Z,14.05
2022-11-22T10:25:56.135Z,13.50
2022-11-22T10:28:30.997Z,13.57
2022-11-22T10:31:03.690Z,12.27
2022-11-22T10:33:42.853Z,9.15
2022-11-22T10:36:25.426Z,12.02
2022-11-22T10:41:48.200Z,8.85
2022-11-22T10:44:24.968Z,8.60
2022-11-22T10:46:58.599Z,8.95
2022-11-22T10:49:37.924Z,7.95
2022-11-22T10:52:13.732Z,7.32
2022-11-22T10:54:50.224Z,10.63
2022-11-22T10:57:24.408Z,15.65
2022-11-22T10:59:59.623Z,7.70
2022-11-22T11:03:00.797Z,6.55
2022-11-22T11:05:33.576Z,7.50
2022-11-22T11:08:22.158Z,6.75
2022-11-22T11:10:51.921Z,8.38
2022-11-22T11:13:23.442Z,6.68
2022-11-22T11:15:56.200Z,7.10
2022-11-22T11:18:28.807Z,6.97
2022-11-22T11:20:57.164Z,26.17
2022-11-22T11:23:25.409Z,33.67
2022-11-22T11:25:55.251Z,9.15
2022-11-22T11:28:25.848Z,6.75
2022-11-22T11:30:56.433Z,7.13
2022-11-22T11:33:30.035Z,8.82
2022-11-22T11:36:04.043Z,7.53
2022-11-22T11:38:34.672Z,5.20
2022-11-22T11:41:23.557Z,7.55
2022-11-22T11:43:52.717Z,6.32
2022-11-22T11:46:22.925Z,8.50
2022-11-22T11:48:51.865Z,7.55
2022-11-22T11:51:24.140Z,7.40
2022-11-22T11:54:01.756Z,6.63
2022-11-22T11:56:34.745Z,7.43
2022-11-22T11:59:08.368Z,6.40
2022-11-22T12:01:39.012Z,7.07
2022-11-22T12:04:08.419Z,6.35
2022-11-22T12:06:36.715Z,6.97
2022-11-22T12:09:29.041Z,6.70
2022-11-22T12:12:02.476Z,10.40
2022-11-22T12:14:55.469Z,11.95
2022-11-22T12:17:25.208Z,10.85
2022-11-22T12:20:00.199Z,9.77
2022-11-22T12:22:50.814Z,8.98
2022-11-22T12:25:34.739Z,8.88
2022-11-22T12:28:17.432Z,9.73
2022-11-22T12:30:46.702Z,11.93
2022-11-22T12:33:19.361Z,12.65
2022-11-22T12:35:48.685Z,9.18
2022-11-22T12:38:19.342Z,10.25
2022-11-22T12:40:49.613Z,23.53
2022-11-22T12:43:23.885Z,28.70
2022-11-22T12:45:54.035Z,13.13
2022-11-22T12:48:24.407Z,9.37
2022-11-22T12:50:54.726Z,7.90
2022-11-22T12:53:26.123Z,11.45
2022-11-22T12:55:59.716Z,10.02
2022-11-22T12:58:34.861Z,10.82
2022-11-22T13:01:10.111Z,11.30
2022-11-22T13:03:41.256Z,9.98
2022-11-22T13:06:10.314Z,12.82
2022-11-22T13:08:42.490Z,13.65
2022-11-22T13:11:16.387Z,12.77
2022-11-22T13:13:49.191Z,10.45
2022-11-22T13:16:18.283Z,9.30
2022-11-22T13:18:49.620Z,10.75
2022-11-22T13:21:24.066Z,14.32
2022-11-22T13:24:10.135Z,12.45
2022-11-22T13:26:44.325Z,21.42
2022-11-22T13:29:23.343Z,11.35
2022-11-22T13:32:06.059Z,9.02
2022-11-22T13:34:36.266Z,14.38
2022-11-22T13:37:09.735Z,12.52
2022-11-22T13:39:43.791Z,10.75
2022-11-22T13:42:15.365Z,13.55
2022-11-22T13:44:53.725Z,10.85
2022-11-22T13:47:39.649Z,13.73
2022-11-22T13:50:53.613Z,11.50
2022-11-22T13:53:25.839Z,13.98
2022-11-22T13:55:54.286Z,10.82
2022-11-22T13:58:55.198Z,12.93
2022-11-22T14:01:56.379Z,12.98
2022-11-22T14:04:36.513Z,15.48
2022-11-22T14:07:07.532Z,16.50
2022-11-22T14:09:39.432Z,12.93
2022-11-22T14:12:25.082Z,14.93
2022-11-22T14:15:11.086Z,11.20
2022-11-22T14:17:44.828Z,10.63
2022-11-22T14:20:29.141Z,14.73
2022-11-22T14:23:01.264Z,11.80
2022-11-22T14:25:48.710Z,11.82
2022-11-22T14:28:30.537Z,12.75
2022-11-22T14:30:58.998Z,13.70
2022-11-22T14:33:28.630Z,13.75
2022-11-22T14:36:17.737Z,13.65
2022-11-22T14:38:46.418Z,13.48
2022-11-22T14:41:43.518Z,14.98
2022-11-22T14:44:16.208Z,16.63
2022-11-22T14:46:55.774Z,16.60
2022-11-22T14:49:33.216Z,15.05
2022-11-22T14:52:03.174Z,16.23
2022-11-22T14:54:39.034Z,18.75
2022-11-22T14:57:08.448Z,17.63
2022-11-22T14:59:57.171Z,16.73
2022-11-22T15:03:03.631Z,16.80
2022-11-22T15:09:12.288Z,18.13
2022-11-22T15:09:23.220Z,17.25
2022-11-22T15:11:40.952Z,21.15
2022-11-22T15:14:25.805Z,21.85
2022-11-22T15:57:28.687Z,29.40
2022-11-22T15:59:58.632Z,29.27
2022-11-22T16:02:31.118Z,27.15
2022-11-22T16:06:04.368Z,33.10
2022-11-22T16:07:52.521Z,31.10
2022-11-22T16:10:22.348Z,38.33
2022-11-22T16:12:51.356Z,35.47
2022-11-22T16:15:25.564Z,37.38
2022-11-22T16:17:59.399Z,36.95
2022-11-22T16:20:33.894Z,34.55
2022-11-22T16:23:15.998Z,36.13
2022-11-22T16:25:45.643Z,32.63
2022-11-22T16:28:35.392Z,33.15
2022-11-22T16:31:07.604Z,36.95
2022-11-22T16:33:36.092Z,35.28
2022-11-22T16:36:07.061Z,38.30
2022-11-22T16:38:35.553Z,32.85
2022-11-22T16:41:03.729Z,36.08
2022-11-22T16:43:35.681Z,38.38
2022-11-22T16:46:05.183Z,32.67
2022-11-22T16:48:33.925Z,32.03
2022-11-22T16:51:07.045Z,32.17
2022-11-22T16:53:42.171Z,30.33
2022-11-22T16:56:16.589Z,31.15
2022-11-22T16:58:45.316Z,30.25
2022-11-22T17:01:16.253Z,32.90
2022-11-22T17:06:18.745Z,32.28
2022-11-22T17:08:47.544Z,28.90
2022-11-22T17:11:17.313Z,31.58
2022-11-22T17:13:46.294Z,31.52
2022-11-22T17:16:17.818Z,30.52
2022-11-22T17:18:47.707Z,29.00
2022-11-22T17:21:19.290Z,34.80
2022-11-22T17:23:47.711Z,34.42
2022-11-22T17:26:15.878Z,33.92
2022-11-22T17:28:44.373Z,32.30
2022-11-22T17:31:13.856Z,32.47
2022-11-22T17:33:43.756Z,30.45
2022-11-22T17:36:21.361Z,30.38
2022-11-22T17:38:49.719Z,30.38
2022-11-22T17:41:17.987Z,31.10
2022-11-22T17:43:46.410Z,30.17
2022-11-22T17:46:15.203Z,28.50
2022-11-22T17:48:45.096Z,31.67
2022-11-22T17:51:14.243Z,26.95
2022-11-22T17:53:42.718Z,37.33
2022-11-22T17:56:11.634Z,34.03
2022-11-22T17:58:40.586Z,45.40
2022-11-22T18:01:10.709Z,37.85
2022-11-22T18:03:39.665Z,32.87
2022-11-22T18:06:10.436Z,33.67
2022-11-22T18:08:45.220Z,33.45
2022-11-22T18:11:15.267Z,27.48
2022-11-22T18:13:43.901Z,23.90
2022-11-22T18:16:14.536Z,24.45
2022-11-22T18:18:58.651Z,28.55
2022-11-22T18:21:30.220Z,31.98
2022-11-22T18:23:59.353Z,40.35
2022-11-22T18:26:43.139Z,32.40
2022-11-22T18:32:01.080Z,31.70
2022-11-22T18:34:30.750Z,29.98
2022-11-22T18:37:03.631Z,30.45
2022-11-22T18:39:35.283Z,29.38
2022-11-22T18:42:04.161Z,28.52
2022-11-22T18:44:32.596Z,31.83
2022-11-22T18:47:00.794Z,27.92
2022-11-22T18:49:29.795Z,31.98
2022-11-22T18:51:58.341Z,33.60
2022-11-22T18:54:28.144Z,28.80
2022-11-22T18:56:56.231Z,31.35
2022-11-22T18:59:24.649Z,30.55
2022-11-22T19:01:52.850Z,34.13
2022-11-22T19:04:21.241Z,30.25
2022-11-22T19:06:49.370Z,29.80
2022-11-22T19:09:17.661Z,30.42
2022-11-22T19:11:47.372Z,32.20
2022-11-22T19:14:15.728Z,30.40
2022-11-22T19:16:44.130Z,28.23
2022-11-22T19:19:13.182Z,27.58
2022-11-22T19:21:41.537Z,27.02
2022-11-22T19:24:10.060Z,29.52
2022-11-22T19:26:38.569Z,29.27
2022-11-22T19:29:08.859Z,28.38
2022-11-22T19:31:37.393Z,28.52
2022-11-22T19:34:05.884Z,29.10
2022-11-22T19:36:36.354Z,30.80
2022-11-22T19:39:05.607Z,30.77
2022-11-22T19:41:34.266Z,31.38
2022-11-22T19:44:03.188Z,33.20
2022-11-22T19:46:33.205Z,34.10
2022-11-22T19:49:02.503Z,31.85
2022-11-22T19:51:32.043Z,35.25
2022-11-22T19:54:02.301Z,32.58
2022-11-22T19:56:32.893Z,33.38
2022-11-22T19:59:02.759Z,28.95
2022-11-22T20:01:34.823Z,37.67
2022-11-22T20:04:07.726Z,33.53
2022-11-22T20:06:38.390Z,35.42
2022-11-22T20:09:09.285Z,32.88
2022-11-22T20:11:38.188Z,29.55
2022-11-22T20:14:06.628Z,31.70
2022-11-22T20:16:37.563Z,34.30
2022-11-22T20:19:07.077Z,34.90
2022-11-22T20:21:36.672Z,34.33
2022-11-22T20:24:06.267Z,35.15
2022-11-22T20:26:35.021Z,35.40
2022-11-22T20:29:05.089Z,35.05
2022-11-22T20:31:35.048Z,32.40
2022-11-22T20:34:04.775Z,45.80
2022-11-22T20:36:35.150Z,35.53
2022-11-22T20:39:08.589Z,32.40
2022-11-22T20:41:39.135Z,41.15
2022-11-22T20:44:07.589Z,29.98
2022-11-22T20:46:37.894Z,34.67
2022-11-22T20:49:07.994Z,37.28
2022-11-22T20:51:39.656Z,35.10
2022-11-22T20:54:08.130Z,31.67
2022-11-22T20:56:36.774Z,31.67
2022-11-22T20:59:05.090Z,35.00
2022-11-22T21:01:33.688Z,30.30
2022-11-22T21:04:02.060Z,31.20
2022-11-22T21:06:32.938Z,33.17
2022-11-22T21:09:01.130Z,30.15
2022-11-22T21:11:31.062Z,30.92
2022-11-22T21:13:59.593Z,34.67
2022-11-22T21:16:29.616Z,33.92
2022-11-22T21:18:59.467Z,31.95
2022-11-22T21:21:28.497Z,33.25
2022-11-22T21:24:00.940Z,33.42
2022-11-22T21:26:29.908Z,28.13
2022-11-22T21:28:59.483Z,28.13
2022-11-22T21:31:28.572Z,30.33
2022-11-22T21:33:56.797Z,31.83
2022-11-22T21:36:25.261Z,31.23
2022-11-22T21:38:53.327Z,32.50
2022-11-22T21:41:39.407Z,28.75
2022-11-22T21:44:08.966Z,31.50
2022-11-22T21:46:37.438Z,29.90
2022-11-22T21:49:05.585Z,29.98
2022-11-22T21:51:33.985Z,28.08
2022-11-22T21:54:03.131Z,36.47
2022-11-22T21:56:33.153Z,29.60
2022-11-22T21:59:01.379Z,28.63
2022-11-22T22:01:30.089Z,28.98
2022-11-22T22:03:58.342Z,29.50
2022-11-22T22:06:26.832Z,32.58
2022-11-22T22:08:55.198Z,29.05
2022-11-22T22:11:23.794Z,30.40
2022-11-22T22:13:55.306Z,31.63
2022-11-22T22:16:26.090Z,34.03
2022-11-22T22:18:54.614Z,36.67
2022-11-22T22:21:23.229Z,38.05
2022-11-22T22:23:51.415Z,37.53
2022-11-22T22:26:19.979Z,38.67
2022-11-22T22:28:48.186Z,42.13
2022-11-22T22:31:21.968Z,38.03
2022-11-22T22:33:51.500Z,39.85
2022-11-22T22:36:20.356Z,38.72
2022-11-22T22:38:48.740Z,40.38
2022-11-22T22:41:17.642Z,40.15
2022-11-22T22:43:48.723Z,40.92
2022-11-22T22:48:48.017Z,39.28
2022-11-22T22:51:18.144Z,41.95
2022-11-22T22:53:47.035Z,41.15
2022-11-22T22:56:17.708Z,40.35
2022-11-22T22:58:46.095Z,39.90
2022-11-22T23:01:15.991Z,38.20
2022-11-22T23:03:48.523Z,35.63
2022-11-22T23:06:17.450Z,35.20
2022-11-22T23:08:47.251Z,35.35
2022-11-22T23:11:16.405Z,32.25
2022-11-22T23:13:44.930Z,32.03
2022-11-22T23:16:14.802Z,32.40
2022-11-22T23:18:45.907Z,31.83
2022-11-22T23:21:15.757Z,34.15
2022-11-22T23:23:44.000Z,34.22
2022-11-22T23:26:13.945Z,34.55
2022-11-22T23:28:42.270Z,33.50
2022-11-22T23:31:15.484Z,37.15
2022-11-22T23:33:45.768Z,36.88
2022-11-22T23:36:15.864Z,36.28
2022-11-22T23:38:44.442Z,36.85
2022-11-22T23:41:13.576Z,38.35
2022-11-22T23:43:42.545Z,36.20
2022-11-22T23:46:16.199Z,38.00
2022-11-22T23:48:46.399Z,36.33
2022-11-22T23:51:15.684Z,35.03
2022-11-22T23:53:43.855Z,36.97
2022-11-22T23:56:18.992Z,35.70
2022-11-22T23:58:49.967Z,36.22
